Aérodrome :
LOGIN :

S'inscrire | Disclaimer

   EN    FR    IT 

 










Légende :    VFR   VFR Marginal   IFR   IFR Intensif   IFR Très Intensif
Visi : 
Plafond : 
>= 8 km
>= 3000ft
5 à 8 km
1000 à 3000 ft
1500m à 5 km
500 à 1000 ft
800 à 1500m
200 à 500 ft
< 800m
< 200 ft
Symboles :   Orages  Brouillard  Fortes neiges  Fortes précipitations  Vent > 20 kt
SIGMETs :   Divers  Orages  Givrage  Turbulence  Onde Orograph.  Cendres Volcan.







- Altitude de l'aérodrome : 187 ft


LPMR - Monte Real Air Base

DERNIER METAR :
  • 180400Z 15010KT 9999 SCT016 BKN030 17/14 Q1012

METARs EXPIRÉS :
  • 180300Z 14005KT 9999 FEW018 BKN035 15/12 Q1012
  • 180200Z 15006KT 9999 FEW020 BKN045 14/11 Q1013

TAF TAF LPMR
Valide du 18 à 00h jusqu'au 19 à 00h UTC


172304Z 1800/1824 16005KT 9999 SCT045
BECMG 1803/1806 15012KT 9000 -RA SCT015 BKN025
PROB30
TEMPO 1805/1808 5000 RA SCT008 BKN014
BECMG 1810/1812 18015KT 9999 NSW SCT035
TEMPO 1810/1818 19018G28KT
BECMG 1820/1822 20010KT SCT004 BKN012
PROB40
TEMPO 1820/1824 3000 DZ BR BKN004
Pas de NOTAMs connus pour ce terrain.



MET'MAP, la Météo Aéronautique d'un coup d'oeil ! - Copyright ORBIFLY Décembre 2007 - Disclaimer

ORBIFLY MET'MAP TEAM :

Programmation & Développement : Alexandra Zaïnal
Conception & Développement : Baudouin d'Aumeries
Co-Programmation & Développement : Marc-Olivier Méhu
Soutien technique & logistique : Manuel Goepfert

Contact : metmap@orbifly.com




SOURCES & CREDITS :

   NOAA